AirNav   Air Wisconsin pilot careers
 
 397 users online  

1AL4 Elsanor Airport
Robertsdale, Alabama, USA

GOING TO ROBERTSDALE?


FAA INFORMATION EFFECTIVE 23 MAY 2019

Location

FAA Identifier: 1AL4
Lat/Long: 30-32-41.0000N / 087-33-34.0000W
30-32.683333N / 087-33.566667W
30.5447222 / -87.5594444
(estimated)
Elevation: 180 ft. / 55 m (estimated)
Variation: 01E (1990)
From city: 11 miles E of ROBERTSDALE, AL
Time zone: UTC -5 (UTC -6 during Standard Time)
Zip code: 36567

Airport Operations

Airport use: Private use. Permission required prior to landing
Activation date: 03/1993
Control tower: no
ARTCC: JACKSONVILLE CENTER
FSS: ANNISTON FLIGHT SERVICE STATION
Attendance: UNATNDD
Segmented circle: no

Airport Communications

WX AWOS-3PT at JKA (16 nm S): 134.525 (251-968-7581)
WX AWOS-3PT at CQF (17 nm W): 118.425 (251-928-3242)
WX ASOS at PNS (20 nm E): PHONE 850-436-4799

Nearby radio navigation aids

VOR radial/distance  VOR name  Freq  Var
NUNr290/(12.3)SAUFLEY VOR108.8001E
BFMr095/25.9BROOKLEY VORTAC112.8004E

 
NDB name  Hdg/Dist  Freq  Var  ID
PICKENS290/20.732602WPKZ .--. -.- --..

Airport Services

Runway Information

Runway 9/27

Dimensions: 2400 x 100 ft. / 732 x 30 m
Surface: turf
RUNWAY 9  RUNWAY 27
Traffic pattern: leftleft

Airport Ownership and Management from official FAA records

Ownership: Privately-owned
Owner: RICHARD E. GORDON JR
21810 KOLER ROAD
ROBERTSDALE, AL 21756
Phone (805) 572-7510
Manager: RICHARD E. GORDON JR.
21810 KOLER ROAD
ROBERTSDALE, AL 21756
Phone (805) 572-7510

Airport Operational Statistics

Aircraft based on the field: 1
Single engine airplanes: 1
    

Additional Remarks

GLIDER ACTIVITY ON AND INVOF ARPT.

Instrument Procedures

There are no published instrument procedures at 1AL4.

Some nearby airports with instrument procedures:

5R4 - Foley Municipal Airport (10 nm SW)
KJKA - Jack Edwards National Airport (16 nm S)
KNPA - Pensacola Naval Air Station/Forrest Sherman Field (17 nm SE)
KCQF - H L Sonny Callahan Airport (17 nm W)
KPNS - Pensacola International Airport (20 nm E)
 
Loc | Ops | Rwys | IFR | FBO | Links
Com | Nav | Svcs | Stats | Notes

Continental Motors
AirBoss

 
Area around 1AL4 (Elsanor Airport)
 
Road maps at: MapQuest Bing Google
 
Aerial photo
No photo
 
Sectional chart

 
Airport distance calculator
Flying to Elsanor Airport? Find the distance to fly.

From to 1AL4

Sunrise and sunset
Times for 16-Jun-2019
 Local
(UTC-5)
 Zulu
(UTC)
Morning civil twilight05:2110:21
Sunrise05:4810:48
Sunset19:5300:53
Evening civil twilight20:2101:21

Current date and time
Zulu (UTC)  16-Jun-2019 10:17:11
Local (UTC-5)  16-Jun-2019 05:17:11
 
METAR
KJKA 
16nm S 
160955Z AUTO 00000KT 10SM SCT024 26/22 A2998 RMK AO2 T02550224
KNPA 
17nm SE 
160956Z AUTO 19006KT 10SM CLR 26/23 A2998 RMK AO2 SLP152 T02560233 $
KCQF 
17nm W 
160955Z AUTO 00000KT 10SM SCT020 21/21 A2998 RMK AO2
KPNS 
20nm E 
160953Z AUTO 00000KT 10SM CLR 25/24 A2998 RMK AO2 SLP152 T02500239
KBFM 
27nm W 
160953Z AUTO 21003KT 10SM CLR 26/24 A3000 RMK AO2 SLP157 T02610239
KNDZ 
29nm E 
160956Z AUTO 00000KT 5SM BR CLR 21/21 A3000 RMK AO2 SLP142 T02060206 $
KNSE 
30nm E 
160956Z AUTO 00000KT 8SM FEW020 21/21 A3000 RMK AO2 SLP142 T02060206 $
TAF
KNPA 
17nm SE 
1607/1707 VRB06KT 9999 FEW015 FEW250 QNH2995INS BECMG 1613/1615 16008KT 9999 FEW015 FEW180 SCT250 QNH2998INS BECMG 1623/1624 19009KT 9999 SCT040 BKN250 QNH2992INS BECMG 1703/1704 18005KT 9999 FEW015 SCT030 SCT250 QNH2995INS AUTOMATED SENSOR METWATCH 1607 TIL 1617 T23/1611Z T32/1620Z FN00213
KPNS 
20nm E 
160520Z 1606/1706 17005KT P6SM FEW030 SCT250 FM161700 18010KT P6SM SCT040 SCT250
NOTAMs
Click for the latest NOTAMs
NOTAMs are issued by the DoD/FAA and will open in a separate window not controlled by AirNav.

 

 
 

Would you like to see your business listed on this page?

 If your business provides an interesting product or service to pilots, flight crews, aircraft, or users of the Elsanor Airport, you should consider listing it here.  To start the listing process, click on the button below
 
Add a business
 

Other Pages about Elsanor Airport

Update a link
 
Copyright © AirNav, LLC. All rights reserved. Privacy Policy  Contact